Time;durP1;ratioP1;P1;durP2;ratioP2;P2;SDS_P1;SDS_P2;PMS_P1;PMS_P2;Temp;Humidity;BMP_temperature;BMP_pressure;BME280_temperature;BME280_humidity;BME280_pressure;Samples;Min_cycle;Max_cycle;Signal;HPM_P1;HPM_P2
2024/02/12 00:00:18;;;;;;;6.97;6.27;;;;;;;6.31;100.00;99503.09;6144198;28;20231;-69
2024/02/12 00:03:39;;;;;;;9.00;7.60;;;;;;;6.39;100.00;99501.38;6140935;28;20226;-68
2024/02/12 00:07:00;;;;;;;9.10;8.13;;;;;;;6.25;100.00;99503.66;6130555;28;20227;-69
2024/02/12 00:10:21;;;;;;;7.73;6.93;;;;;;;6.45;100.00;99510.66;6147611;28;20513;-69
2024/02/12 00:13:42;;;;;;;6.93;6.43;;;;;;;6.60;100.00;99511.03;6146193;28;20231;-68
2024/02/12 00:17:09;;;;;;;7.73;7.00;;;;;;;6.36;100.00;99515.03;6138668;28;20223;-68
2024/02/12 00:20:30;;;;;;;7.97;7.30;;;;;;;6.06;100.00;99511.69;6141813;28;20230;-69
2024/02/12 00:23:51;;;;;;;10.57;8.43;;;;;;;5.97;100.00;99515.19;6137486;28;20227;-68
2024/02/12 00:27:12;;;;;;;7.20;6.53;;;;;;;5.81;100.00;99514.88;6120899;28;20231;-68
2024/02/12 00:30:33;;;;;;;7.47;6.77;;;;;;;5.73;100.00;99517.41;6124097;28;20234;-68
2024/02/12 00:33:56;;;;;;;9.43;8.53;;;;;;;5.76;100.00;99515.28;6147622;28;20241;-69
2024/02/12 00:37:17;;;;;;;7.27;6.57;;;;;;;5.89;100.00;99517.72;6145117;28;20242;-69
2024/02/12 00:40:40;;;;;;;9.07;7.30;;;;;;;5.98;100.00;99520.44;6143959;28;20234;-69
2024/02/12 00:44:03;;;;;;;9.33;7.90;;;;;;;6.01;100.00;99525.47;6149132;28;20230;-68
2024/02/12 00:47:25;;;;;;;8.67;7.17;;;;;;;6.13;100.00;99523.53;6136295;28;20597;-68
2024/02/12 00:50:48;;;;;;;10.03;7.13;;;;;;;5.96;100.00;99517.06;6140395;28;20238;-68
2024/02/12 00:54:10;;;;;;;8.97;8.17;;;;;;;5.99;100.00;99523.94;6147670;28;20230;-69
2024/02/12 00:57:31;;;;;;;7.03;6.33;;;;;;;5.82;100.00;99525.44;6140807;28;20231;-69
2024/02/12 01:00:52;;;;;;;6.87;6.27;;;;;;;5.68;100.00;99531.19;6126044;28;20239;-69
2024/02/12 01:04:13;;;;;;;7.40;6.70;;;;;;;5.72;100.00;99523.72;6146609;28;20238;-68
2024/02/12 01:07:40;;;;;;;6.97;5.97;;;;;;;5.71;100.00;99528.25;6137371;28;20658;-69
2024/02/12 01:11:01;;;;;;;7.00;6.30;;;;;;;5.64;100.00;99538.66;6140724;28;20294;-69
2024/02/12 01:14:23;;;;;;;7.67;6.87;;;;;;;5.61;100.00;99536.25;6149628;28;20231;-69
2024/02/12 01:17:44;;;;;;;6.73;6.23;;;;;;;5.69;100.00;99543.59;6137033;28;20242;-69
2024/02/12 01:21:05;;;;;;;8.30;7.50;;;;;;;5.64;100.00;99541.31;6141620;28;20231;-69
2024/02/12 01:24:28;;;;;;;7.87;7.03;;;;;;;5.60;100.00;99539.91;6142789;28;20235;-69
2024/02/12 01:27:50;;;;;;;9.00;7.83;;;;;;;5.69;100.00;99543.59;6138284;28;20564;-68
2024/02/12 01:31:17;;;;;;;7.43;6.70;;;;;;;5.72;100.00;99545.13;6136929;28;20239;-69
2024/02/12 01:34:40;;;;;;;8.87;8.07;;;;;;;5.76;100.00;99543.88;6146660;28;20310;-68
2024/02/12 01:38:01;;;;;;;7.87;7.03;;;;;;;5.84;100.00;99541.38;6143088;28;20227;-69
2024/02/12 01:41:24;;;;;;;8.70;7.73;;;;;;;5.83;100.00;99550.34;6125234;28;20329;-69
2024/02/12 01:44:57;;;;;;;8.67;7.57;;;;;;;5.90;100.00;99544.34;6149686;28;20238;-69
2024/02/12 01:48:18;;;;;;;12.13;8.13;;;;;;;6.08;100.00;99552.50;6149086;28;20270;-69
2024/02/12 01:51:44;;;;;;;11.17;8.87;;;;;;;6.01;100.00;99551.38;6137288;28;20546;-69
2024/02/12 01:55:07;;;;;;;9.17;8.37;;;;;;;6.03;100.00;99552.94;6148420;28;20242;-68
2024/02/12 01:58:30;;;;;;;10.07;8.87;;;;;;;6.12;100.00;99554.78;6128637;28;20309;-69
2024/02/12 02:01:52;;;;;;;9.80;8.80;;;;;;;6.18;100.00;99556.88;6143109;28;20242;-69
2024/02/12 02:05:13;;;;;;;11.20;9.93;;;;;;;6.24;100.00;99558.13;6148223;28;20235;-68
2024/02/12 02:08:36;;;;;;;10.53;9.53;;;;;;;6.25;100.00;99562.53;6147216;28;20266;-69
2024/02/12 02:11:57;;;;;;;11.30;9.93;;;;;;;6.22;100.00;99565.47;6138309;28;20219;-69
2024/02/12 02:15:20;;;;;;;10.10;8.60;;;;;;;6.29;100.00;99563.94;6143346;28;20222;-67
2024/02/12 02:18:46;;;;;;;11.37;10.13;;;;;;;6.31;100.00;99568.16;6136176;28;20356;-68
2024/02/12 02:22:08;;;;;;;12.47;10.13;;;;;;;6.42;100.00;99565.31;6141443;28;20608;-68
2024/02/12 02:25:33;;;;;;;13.40;11.27;;;;;;;6.49;100.00;99565.59;6140752;28;20231;-68
2024/02/12 02:28:56;;;;;;;12.80;11.00;;;;;;;6.40;100.00;99563.78;6148382;28;20338;-68
2024/02/12 02:32:16;;;;;;;11.07;10.07;;;;;;;6.45;100.00;99566.88;6132214;28;20227;-69
2024/02/12 02:35:37;;;;;;;13.67;10.53;;;;;;;6.45;100.00;99575.75;6144955;28;20644;-67
2024/02/12 02:39:02;;;;;;;12.07;10.80;;;;;;;6.41;100.00;99579.69;6148079;28;20234;-68
2024/02/12 02:42:25;;;;;;;11.43;9.97;;;;;;;6.36;100.00;99573.91;6143494;28;20231;-68
2024/02/12 02:45:46;;;;;;;12.77;10.20;;;;;;;6.38;100.00;99588.00;6146087;28;20262;-69
2024/02/12 02:49:07;;;;;;;11.27;9.93;;;;;;;6.42;100.00;99585.91;6120480;28;20234;-69
2024/02/12 02:52:28;;;;;;;12.70;11.37;;;;;;;6.61;100.00;99583.22;6138416;28;20227;-69
2024/02/12 02:55:50;;;;;;;10.50;9.43;;;;;;;6.61;100.00;99585.88;6143624;28;20313;-69
2024/02/12 02:59:12;;;;;;;14.27;10.83;;;;;;;6.59;100.00;99587.88;6146195;28;20235;-68
2024/02/12 03:02:34;;;;;;;10.80;9.70;;;;;;;6.62;100.00;99587.56;6136751;28;20226;-67
2024/02/12 03:05:55;;;;;;;10.13;8.97;;;;;;;6.64;100.00;99584.75;6137795;28;20532;-69
2024/02/12 03:09:16;;;;;;;11.07;9.90;;;;;;;6.65;100.00;99587.28;6146533;28;20242;-69
2024/02/12 03:12:38;;;;;;;12.10;9.27;;;;;;;6.65;100.00;99579.25;6141219;28;20230;-68
2024/02/12 03:16:00;;;;;;;12.27;10.67;;;;;;;6.54;100.00;99589.25;6138627;28;20637;-69
2024/02/12 03:19:23;;;;;;;12.67;11.40;;;;;;;6.58;100.00;99598.69;6145866;28;20237;-69
2024/02/12 03:22:45;;;;;;;13.90;11.07;;;;;;;6.72;100.00;99603.59;6138774;28;20329;-69
2024/02/12 03:26:08;;;;;;;11.50;9.90;;;;;;;6.62;100.00;99605.44;6142375;28;20239;-68
2024/02/12 03:29:31;;;;;;;12.60;9.70;;;;;;;6.65;100.00;99605.19;6149234;28;20231;-68
2024/02/12 03:32:53;;;;;;;11.93;10.73;;;;;;;6.79;100.00;99604.72;6132196;28;20219;-69
2024/02/12 03:36:15;;;;;;;9.43;8.53;;;;;;;6.67;100.00;99606.75;6137687;28;20227;-69
2024/02/12 03:39:35;;;;;;;10.13;9.13;;;;;;;6.74;100.00;99607.00;6133760;28;20238;-68
2024/02/12 03:42:56;;;;;;;12.37;10.13;;;;;;;6.87;100.00;99605.72;6146908;28;20227;-68
2024/02/12 03:46:19;;;;;;;11.40;10.30;;;;;;;6.83;100.00;99607.00;6138646;28;20254;-68
2024/02/12 04:00:40;;;;;;;10.60;8.47;;;;;;;7.01;100.00;99613.28;6135316;28;20337;-68
2024/02/12 04:04:01;;;;;;;10.77;8.13;;;;;;;6.97;100.00;99619.91;6145568;28;20238;-69
2024/02/12 04:07:24;;;;;;;10.70;8.67;;;;;;;7.05;100.00;99619.22;6134845;28;20660;-69
2024/02/12 04:10:48;;;;;;;10.20;9.20;;;;;;;7.03;100.00;99618.53;6144038;28;20776;-68
2024/02/12 04:14:09;;;;;;;10.63;8.97;;;;;;;7.13;100.00;99625.50;6152294;28;20235;-69
2024/02/12 04:17:30;;;;;;;8.07;7.27;;;;;;;7.23;100.00;99630.88;6128604;28;20517;-69
2024/02/12 04:20:51;;;;;;;9.90;8.97;;;;;;;7.07;100.00;99642.19;6142720;28;21191;-68
2024/02/12 04:24:14;;;;;;;8.40;7.33;;;;;;;7.03;100.00;99646.13;6145079;28;20310;-69
2024/02/12 04:27:34;;;;;;;10.13;8.77;;;;;;;7.09;100.00;99645.56;6141105;28;20231;-69
2024/02/12 04:30:56;;;;;;;8.80;7.90;;;;;;;7.13;100.00;99643.44;6134091;28;20538;-69
2024/02/12 04:34:17;;;;;;;10.03;8.33;;;;;;;7.18;100.00;99649.19;6143747;28;20234;-69
2024/02/12 04:37:38;;;;;;;9.83;8.20;;;;;;;7.11;100.00;99650.78;6140094;28;20281;-68
2024/02/12 04:41:00;;;;;;;8.10;7.30;;;;;;;7.13;100.00;99655.00;6138514;28;20524;-69
2024/02/12 04:44:21;;;;;;;10.70;8.60;;;;;;;7.14;100.00;99658.53;6148215;28;20227;-68
2024/02/12 04:47:42;;;;;;;9.97;9.00;;;;;;;7.20;100.00;99663.31;6132285;28;20226;-68
2024/02/12 04:51:03;;;;;;;12.90;10.10;;;;;;;7.16;100.00;99661.91;6130623;28;20235;-68
2024/02/12 04:54:25;;;;;;;10.60;9.50;;;;;;;7.18;100.00;99663.44;6146124;28;20230;-69
2024/02/12 04:57:47;;;;;;;11.77;9.50;;;;;;;7.23;100.00;99666.56;6137652;28;20235;-68
2024/02/12 05:01:08;;;;;;;11.77;10.27;;;;;;;7.22;100.00;99669.34;6135481;28;20247;-68
2024/02/12 05:04:29;;;;;;;14.37;12.30;;;;;;;7.28;100.00;99675.00;6147639;28;20234;-68
2024/02/12 05:07:51;;;;;;;14.13;11.73;;;;;;;7.34;100.00;99673.59;6141230;28;20672;-68
2024/02/12 05:11:11;;;;;;;14.27;12.63;;;;;;;7.34;100.00;99670.91;6145803;28;20234;-68
2024/02/12 05:14:34;;;;;;;17.47;11.40;;;;;;;7.32;100.00;99686.28;6147747;28;20258;-69
2024/02/12 05:18:06;;;;;;;17.20;11.87;;;;;;;7.32;100.00;99682.75;6131441;28;20228;-68
2024/02/12 05:25:05;;;;;;;20.80;14.43;;;;;;;7.24;100.00;99686.16;6126551;28;20703;-68
2024/02/12 05:28:27;;;;;;;15.13;13.10;;;;;;;7.20;100.00;99685.59;6149521;28;20239;-68
2024/02/12 05:31:50;;;;;;;18.37;15.17;;;;;;;7.25;100.00;99682.47;6130669;28;20347;-68
2024/02/12 05:35:12;;;;;;;16.87;13.77;;;;;;;7.21;100.00;99681.94;6146085;28;20322;-68
2024/02/12 05:38:33;;;;;;;16.97;14.07;;;;;;;7.25;100.00;99679.81;6146989;28;20606;-69
2024/02/12 05:41:54;;;;;;;18.70;15.80;;;;;;;7.16;100.00;99680.66;6141908;28;20818;-69
2024/02/12 05:45:15;;;;;;;20.17;16.17;;;;;;;7.16;100.00;99684.19;6137280;28;20235;-68
2024/02/12 05:48:39;;;;;;;23.43;17.13;;;;;;;7.18;100.00;99692.94;6146976;28;20840;-68
2024/02/12 05:52:02;;;;;;;22.93;17.97;;;;;;;7.18;100.00;99700.13;6137927;28;20613;-67
2024/02/12 05:55:23;;;;;;;25.50;19.13;;;;;;;7.24;100.00;99708.44;6144467;28;21390;-68
2024/02/12 05:58:44;;;;;;;24.03;21.33;;;;;;;7.19;100.00;99715.22;6150919;28;20234;-68
2024/02/12 06:02:06;;;;;;;31.53;20.10;;;;;;;7.08;100.00;99701.97;6124420;28;20234;-68
2024/02/12 06:05:28;;;;;;;28.43;19.70;;;;;;;7.10;100.00;99718.75;6137528;28;20605;-68
2024/02/12 06:08:50;;;;;;;24.53;19.90;;;;;;;7.06;100.00;99722.72;6130388;28;20258;-68
2024/02/12 06:12:11;;;;;;;26.00;19.73;;;;;;;7.06;100.00;99734.28;6137213;28;20234;-68
2024/02/12 06:15:32;;;;;;;28.13;22.37;;;;;;;7.03;100.00;99739.09;6104745;28;20341;-68
2024/02/12 06:18:53;;;;;;;25.57;19.33;;;;;;;7.06;100.00;99736.09;6149710;28;22603;-69
2024/02/12 06:22:16;;;;;;;27.03;21.20;;;;;;;7.01;100.00;99735.66;6075107;28;20239;-69
2024/02/12 06:25:37;;;;;;;35.07;20.43;;;;;;;7.00;100.00;99748.25;6123795;28;20230;-68
2024/02/12 06:28:58;;;;;;;24.57;19.33;;;;;;;7.13;100.00;99738.06;6146175;28;20242;-68
2024/02/12 06:32:34;;;;;;;;;;;;;;;;;;;;;
2024/02/12 06:35:56;;;;;;;22.30;19.67;;;;;;;7.20;100.00;99754.41;6140585;28;20248;-69
2024/02/12 06:39:18;;;;;;;21.80;17.60;;;;;;;7.17;100.00;99758.25;6151962;28;20247;-68
2024/02/12 06:42:41;;;;;;;24.47;18.67;;;;;;;7.14;100.00;99763.88;6141041;28;20223;-68
2024/02/12 06:46:02;;;;;;;28.27;20.97;;;;;;;7.09;100.00;99760.78;6136772;28;20231;-69
2024/02/12 06:49:23;;;;;;;25.43;19.27;;;;;;;7.12;100.00;99763.19;6139115;28;20228;-68
2024/02/12 06:52:43;;;;;;;24.10;19.33;;;;;;;7.16;100.00;99771.78;6132855;28;20238;-67
2024/02/12 06:56:07;;;;;;;23.87;18.70;;;;;;;7.20;100.00;99776.72;6142007;28;20512;-68
2024/02/12 06:59:28;;;;;;;26.07;18.67;;;;;;;7.19;100.00;99780.41;6151700;28;20230;-68
2024/02/12 07:02:49;;;;;;;24.67;18.73;;;;;;;7.20;100.00;99790.13;6133855;28;20239;-68
2024/02/12 07:06:11;;;;;;;21.00;17.03;;;;;;;7.31;100.00;99797.16;6117374;28;20227;-68
2024/02/12 07:09:34;;;;;;;22.53;18.00;;;;;;;7.35;100.00;99801.25;6148104;28;20653;-68
2024/02/12 07:12:57;;;;;;;24.80;18.10;;;;;;;7.30;100.00;99803.53;6142121;28;20227;-68
2024/02/12 07:16:19;;;;;;;23.03;17.33;;;;;;;7.22;100.00;99806.03;6137658;28;20254;-69
2024/02/12 07:19:46;;;;;;;20.03;15.37;;;;;;;7.27;100.00;99817.19;6145106;28;20227;-68
2024/02/12 07:23:07;;;;;;;28.40;17.57;;;;;;;7.31;100.00;99813.25;6135970;28;20235;-68
2024/02/12 07:26:28;;;;;;;24.97;17.13;;;;;;;7.31;100.00;99813.25;6141939;28;20235;-67
2024/02/12 07:29:50;;;;;;;24.17;18.33;;;;;;;7.39;100.00;99815.22;6134290;28;20226;-68
2024/02/12 07:33:11;;;;;;;27.13;16.20;;;;;;;7.46;100.00;99827.94;6144657;28;20227;-67
2024/02/12 07:36:32;;;;;;;24.57;17.77;;;;;;;7.54;100.00;99828.06;6141160;28;20234;-67
2024/02/12 07:39:53;;;;;;;18.10;15.53;;;;;;;7.52;100.00;99840.75;6146708;28;20406;-68
2024/02/12 07:43:16;;;;;;;17.30;13.60;;;;;;;7.51;100.00;99841.72;6147622;28;20236;-67
2024/02/12 07:46:40;;;;;;;22.53;13.17;;;;;;;7.54;100.00;99849.50;6136090;28;20338;-70
2024/02/12 07:50:01;;;;;;;18.00;12.53;;;;;;;7.54;100.00;99852.19;6145488;28;20243;-69
2024/02/12 07:53:25;;;;;;;15.43;13.27;;;;;;;7.60;100.00;99861.50;6144753;28;20250;-68
2024/02/12 07:56:47;;;;;;;16.23;13.07;;;;;;;7.57;100.00;99859.94;6133831;28;20755;-69
2024/02/12 08:00:14;;;;;;;13.27;11.17;;;;;;;7.56;100.00;99866.31;6136951;28;20235;-68
2024/02/12 08:03:36;;;;;;;13.57;10.50;;;;;;;7.54;100.00;99864.75;6132841;28;20234;-68
2024/02/12 08:06:57;;;;;;;18.17;12.17;;;;;;;7.51;100.00;99879.28;6137545;28;20313;-68
2024/02/12 08:10:18;;;;;;;14.37;11.17;;;;;;;7.59;100.00;99868.72;6131837;28;20239;-68
2024/02/12 08:13:38;;;;;;;13.83;10.93;;;;;;;7.75;100.00;99878.84;6146775;28;20605;-67
2024/02/12 08:16:59;;;;;;;12.40;11.00;;;;;;;7.84;100.00;99886.06;6130608;28;20322;-67
2024/02/12 08:20:22;;;;;;;15.03;10.23;;;;;;;7.86;100.00;99881.38;6144062;28;20235;-68
2024/02/12 08:23:42;;;;;;;14.37;10.67;;;;;;;7.99;100.00;99885.44;6141369;28;20649;-69
2024/02/12 08:27:07;;;;;;;13.20;11.43;;;;;;;8.09;100.00;99899.69;6143209;28;20235;-68
2024/02/12 08:30:27;;;;;;;11.80;10.60;;;;;;;8.04;100.00;99906.50;6143023;28;20769;-68
2024/02/12 08:33:48;;;;;;;9.37;8.43;;;;;;;7.77;100.00;99904.56;6125669;28;20644;-68
2024/02/12 08:37:11;;;;;;;13.37;9.70;;;;;;;7.90;100.00;99915.84;6134424;28;20258;-68
2024/02/12 08:40:32;;;;;;;18.60;11.83;;;;;;;7.71;100.00;99910.50;6109716;28;20235;-68
2024/02/12 08:43:55;;;;;;;17.37;11.77;;;;;;;7.71;100.00;99923.03;6137889;28;20246;-68
2024/02/12 08:47:16;;;;;;;13.63;10.37;;;;;;;7.74;100.00;99920.91;6134935;28;20805;-68
2024/02/12 08:50:37;;;;;;;11.03;9.87;;;;;;;7.80;100.00;99935.63;6136061;28;20262;-67
2024/02/12 08:54:00;;;;;;;12.07;10.47;;;;;;;7.73;100.00;99932.66;6152655;28;20226;-68
2024/02/12 08:57:21;;;;;;;14.67;10.63;;;;;;;7.85;100.00;99942.25;6134934;28;20459;-68
2024/02/12 09:00:44;;;;;;;16.30;10.93;;;;;;;7.84;100.00;99945.06;6141655;28;20403;-68
2024/02/12 09:04:06;;;;;;;18.67;12.13;;;;;;;7.87;100.00;99947.47;6145695;28;20282;-68
2024/02/12 09:07:27;;;;;;;13.90;11.70;;;;;;;7.86;100.00;99945.78;6146535;28;20230;-69
2024/02/12 09:10:49;;;;;;;15.20;11.00;;;;;;;7.89;100.00;99958.91;6134134;28;20230;-69
2024/02/12 09:14:10;;;;;;;13.63;9.90;;;;;;;8.00;100.00;99964.13;6146947;28;20274;-69
2024/02/12 09:17:31;;;;;;;16.43;11.03;;;;;;;8.03;100.00;99969.22;6145256;28;20317;-68
2024/02/12 09:20:52;;;;;;;11.93;10.43;;;;;;;8.03;100.00;99970.03;6131995;28;20227;-69
2024/02/12 09:24:14;;;;;;;14.23;10.93;;;;;;;8.17;100.00;99975.97;6152024;28;20262;-69
2024/02/12 09:27:36;;;;;;;12.97;10.43;;;;;;;8.25;100.00;99977.00;6142160;28;20231;-69
2024/02/12 09:31:00;;;;;;;13.67;10.80;;;;;;;8.20;100.00;99989.94;6139537;28;20262;-69
2024/02/12 09:34:21;;;;;;;10.13;9.13;;;;;;;8.20;100.00;99987.25;6144610;28;20243;-69
2024/02/12 09:37:42;;;;;;;11.13;9.37;;;;;;;8.27;100.00;99992.94;6144745;28;20222;-69
2024/02/12 09:41:04;;;;;;;15.30;11.47;;;;;;;8.34;100.00;99996.75;6144331;28;21816;-69
2024/02/12 09:44:30;;;;;;;12.03;10.63;;;;;;;8.13;100.00;100004.94;6149580;28;20250;-70
2024/02/12 09:47:52;;;;;;;12.83;9.57;;;;;;;8.32;100.00;100009.50;6139189;28;20231;-69
2024/02/12 09:51:15;;;;;;;11.80;10.33;;;;;;;8.40;100.00;100012.31;6140521;28;20238;-69
2024/02/12 09:54:38;;;;;;;10.77;9.37;;;;;;;8.39;100.00;100010.59;6152334;28;20222;-69
2024/02/12 09:57:59;;;;;;;11.80;9.10;;;;;;;8.30;100.00;100016.84;6146279;28;20238;-69
2024/02/12 10:01:23;;;;;;;14.37;10.13;;;;;;;8.41;100.00;100025.56;6139700;28;20239;-68
2024/02/12 10:04:44;;;;;;;11.17;9.93;;;;;;;8.46;100.00;100025.16;6147636;28;20234;-69
2024/02/12 10:08:17;;;;;;;16.37;9.67;;;;;;;8.50;100.00;100023.88;6107042;28;20231;-69
2024/02/12 10:11:39;;;;;;;11.50;8.80;;;;;;;8.48;100.00;100031.22;6133083;28;20222;-69
2024/02/12 10:15:02;;;;;;;17.27;10.57;;;;;;;8.56;100.00;100039.41;6150786;28;20230;-68
2024/02/12 10:18:25;;;;;;;11.40;9.27;;;;;;;8.50;100.00;100035.47;6146330;28;20266;-69
2024/02/12 10:21:46;;;;;;;14.10;9.60;;;;;;;8.59;100.00;100041.81;6118502;28;20227;-69
2024/02/12 10:25:09;;;;;;;12.07;10.07;;;;;;;8.79;100.00;100040.78;6148942;28;20235;-69
2024/02/12 10:28:30;;;;;;;12.07;9.10;;;;;;;8.83;100.00;100042.19;6152436;28;20238;-70
2024/02/12 10:31:50;;;;;;;9.70;8.33;;;;;;;8.86;100.00;100041.91;6138188;28;20605;-70
2024/02/12 10:35:16;;;;;;;10.27;8.60;;;;;;;8.80;100.00;100050.53;6143247;28;20218;-69
2024/02/12 10:38:41;;;;;;;11.47;9.20;;;;;;;8.81;100.00;100042.34;6145618;28;20230;-69
2024/02/12 10:42:09;;;;;;;9.87;8.17;;;;;;;8.69;100.00;100050.69;6144055;28;20533;-70
2024/02/12 10:45:31;;;;;;;13.90;9.30;;;;;;;8.45;100.00;100063.75;6134383;28;20235;-71
2024/02/12 10:48:53;;;;;;;14.73;9.33;;;;;;;8.56;100.00;100058.22;6147005;28;20230;-69
2024/02/12 10:52:17;;;;;;;15.80;11.97;;;;;;;8.55;100.00;100062.72;6141031;28;20235;-69
2024/02/12 10:55:38;;;;;;;14.40;11.30;;;;;;;8.59;100.00;100061.47;6135775;28;20235;-69
2024/02/12 10:58:59;;;;;;;10.83;9.73;;;;;;;8.66;100.00;100061.72;6150235;28;20525;-70
2024/02/12 11:02:19;;;;;;;13.47;10.47;;;;;;;8.54;100.00;100060.19;6136741;28;20231;-69
2024/02/12 11:05:43;;;;;;;13.47;11.53;;;;;;;8.49;100.00;100071.34;6143160;28;20226;-69
2024/02/12 11:09:09;;;;;;;14.50;10.80;;;;;;;8.32;100.00;100076.63;6151734;28;20321;-69
2024/02/12 11:12:33;;;;;;;15.43;12.53;;;;;;;8.41;100.00;100081.13;6135096;28;20261;-70
2024/02/12 11:15:54;;;;;;;24.63;13.03;;;;;;;8.29;100.00;100076.88;6134642;28;20324;-69
2024/02/12 11:19:19;;;;;;;16.53;13.53;;;;;;;8.19;100.00;100079.53;6122545;28;20246;-70
2024/02/12 11:22:46;;;;;;;19.77;14.27;;;;;;;8.34;100.00;100083.56;6143704;28;20226;-70
2024/02/12 11:26:09;;;;;;;13.63;12.23;;;;;;;8.40;100.00;100088.34;6118342;28;21135;-69
2024/02/12 11:29:33;;;;;;;16.73;14.83;;;;;;;8.44;100.00;100089.75;6157786;28;20246;-69
2024/02/12 11:32:56;;;;;;;15.50;13.47;;;;;;;8.34;100.00;100086.22;6143487;28;20600;-69
2024/02/12 11:36:17;;;;;;;15.50;13.03;;;;;;;8.42;100.00;100101.63;6143293;28;20700;-69
2024/02/12 11:39:39;;;;;;;19.83;16.73;;;;;;;8.40;100.00;100103.59;6151436;28;20609;-69
2024/02/12 11:43:01;;;;;;;17.40;15.60;;;;;;;8.47;100.00;100107.44;6149618;28;20269;-70
2024/02/12 11:46:21;;;;;;;17.47;13.97;;;;;;;8.51;100.00;100108.84;6141069;28;20222;-69
2024/02/12 11:49:46;;;;;;;19.70;15.53;;;;;;;8.52;100.00;100114.06;6144614;28;20552;-69
2024/02/12 11:53:07;;;;;;;17.70;13.80;;;;;;;8.56;100.00;100120.00;6144244;28;20231;-69
2024/02/12 11:56:28;;;;;;;18.13;15.30;;;;;;;8.46;100.00;100120.00;6129991;28;20235;-71
2024/02/12 11:59:56;;;;;;;18.47;15.10;;;;;;;8.57;100.00;100127.06;6152072;28;20219;-69
2024/02/12 12:03:17;;;;;;;19.30;15.97;;;;;;;8.46;100.00;100129.91;6148760;28;20241;-69
2024/02/12 12:06:38;;;;;;;19.10;15.03;;;;;;;8.61;100.00;100134.72;6140610;28;20291;-68
2024/02/12 12:10:04;;;;;;;18.30;12.93;;;;;;;8.54;100.00;100138.09;6152604;28;21206;-69
2024/02/12 12:13:25;;;;;;;21.03;14.77;;;;;;;8.56;100.00;100142.34;6147782;28;20624;-69
2024/02/12 12:16:47;;;;;;;17.10;14.27;;;;;;;8.60;100.00;100142.91;6142666;28;20333;-69
2024/02/12 12:20:10;;;;;;;21.77;16.17;;;;;;;8.67;100.00;100144.03;6145500;28;20306;-69
2024/02/12 12:23:31;;;;;;;20.57;15.00;;;;;;;8.64;100.00;100150.53;6139251;28;20243;-69
2024/02/12 12:26:52;;;;;;;20.70;14.67;;;;;;;8.59;100.00;100146.59;6135041;28;20246;-69
2024/02/12 12:30:14;;;;;;;16.93;15.17;;;;;;;8.58;100.00;100147.56;6146549;28;20238;-68
2024/02/12 12:33:37;;;;;;;15.83;13.83;;;;;;;8.77;100.00;100158.31;6128892;28;20249;-70
2024/02/12 12:36:58;;;;;;;18.83;15.27;;;;;;;8.58;100.00;100159.16;6136670;28;20317;-67
2024/02/12 12:40:21;;;;;;;25.57;16.00;;;;;;;8.56;100.00;100162.97;6141603;28;20505;-70
2024/02/12 12:43:42;;;;;;;18.43;16.10;;;;;;;8.64;100.00;100160.41;6144513;28;20786;-70
2024/02/12 12:47:05;;;;;;;24.20;17.33;;;;;;;8.57;100.00;100162.81;6133674;28;20239;-70
2024/02/12 12:50:28;;;;;;;23.77;15.07;;;;;;;8.50;100.00;100159.03;6136274;28;20317;-69
2024/02/12 12:53:49;;;;;;;17.63;15.33;;;;;;;8.40;100.00;100158.16;6139841;28;20222;-69
2024/02/12 12:57:11;;;;;;;17.93;14.93;;;;;;;8.51;100.00;100166.06;6139291;28;20242;-70
2024/02/12 13:00:36;;;;;;;24.10;15.67;;;;;;;8.46;100.00;100165.66;6136859;28;20242;-68
2024/02/12 13:04:00;;;;;;;19.80;15.07;;;;;;;8.57;100.00;100168.19;6140975;28;20247;-69
2024/02/12 13:07:23;;;;;;;20.47;16.43;;;;;;;8.60;100.00;100170.63;6141442;28;20246;-70
2024/02/12 13:10:44;;;;;;;17.87;15.93;;;;;;;8.72;100.00;100174.00;6140884;28;20875;-69
2024/02/12 13:14:07;;;;;;;14.70;13.13;;;;;;;8.79;100.00;100167.06;6122393;28;20334;-70
2024/02/12 13:17:28;;;;;;;16.33;13.73;;;;;;;8.98;100.00;100152.75;6136880;28;20227;-70
2024/02/12 13:20:50;;;;;;;18.50;15.70;;;;;;;9.38;100.00;100167.69;6135720;28;20238;-70
2024/02/12 13:24:14;;;;;;;15.60;12.83;;;;;;;9.95;100.00;100165.78;6136086;28;20696;-69
2024/02/12 13:27:35;;;;;;;18.57;14.97;;;;;;;9.77;100.00;100170.22;6135954;28;20223;-69
2024/02/12 13:30:56;;;;;;;20.93;14.87;;;;;;;9.61;100.00;100176.25;6133003;28;20238;-70
2024/02/12 13:34:18;;;;;;;20.20;14.17;;;;;;;9.62;100.00;100177.94;6133859;28;20242;-71
2024/02/12 13:37:39;;;;;;;17.70;12.73;;;;;;;9.09;100.00;100182.19;6119127;28;20235;-70
2024/02/12 13:41:04;;;;;;;13.87;11.30;;;;;;;9.22;100.00;100178.19;6140459;28;20230;-70
2024/02/12 13:44:25;;;;;;;17.77;12.07;;;;;;;9.07;100.00;100178.78;6110692;28;20254;-70
2024/02/12 13:47:46;;;;;;;20.23;13.83;;;;;;;9.03;100.00;100177.38;6127181;28;20837;-72
2024/02/12 13:51:08;;;;;;;10.93;9.83;;;;;;;9.48;100.00;100181.97;6141398;28;20355;-68
2024/02/12 13:54:29;;;;;;;14.43;12.10;;;;;;;9.80;100.00;100180.72;6151517;28;20259;-68
2024/02/12 13:57:52;;;;;;;12.10;10.67;;;;;;;9.69;100.00;100179.06;6141763;28;20231;-68
2024/02/12 14:01:15;;;;;;;10.93;9.40;;;;;;;11.19;100.00;100187.25;6144722;28;20236;-67
2024/02/12 14:04:38;;;;;;;10.13;9.07;;;;;;;11.92;100.00;100185.91;6142027;28;20860;-68
2024/02/12 14:07:59;;;;;;;10.47;9.47;;;;;;;10.65;100.00;100187.47;6143840;28;20243;-67
2024/02/12 14:11:20;;;;;;;12.90;8.90;;;;;;;10.22;100.00;100196.25;6133573;28;20242;-67
2024/02/12 14:14:43;;;;;;;9.33;8.27;;;;;;;9.81;100.00;100212.00;6148506;28;20268;-66
2024/02/12 14:18:04;;;;;;;14.73;7.73;;;;;;;9.34;100.00;100219.22;6137689;28;20239;-67
2024/02/12 14:21:25;;;;;;;8.50;7.60;;;;;;;9.24;100.00;100223.78;6144700;28;20680;-68
2024/02/12 14:24:46;;;;;;;8.90;7.70;;;;;;;9.11;100.00;100234.84;6129855;28;20240;-68
2024/02/12 14:28:09;;;;;;;8.57;7.50;;;;;;;9.01;100.00;100233.97;6142895;28;20239;-68
2024/02/12 14:31:33;;;;;;;11.77;7.77;;;;;;;9.03;100.00;100240.09;6145382;28;21787;-68
2024/02/12 14:34:55;;;;;;;8.33;6.30;;;;;;;8.94;100.00;100234.69;6142458;28;20812;-68
2024/02/12 14:38:16;;;;;;;7.53;6.77;;;;;;;8.89;100.00;100253.09;6137385;28;20241;-68
2024/02/12 14:41:42;;;;;;;10.93;6.20;;;;;;;8.84;100.00;100257.03;6145632;28;20235;-67
2024/02/12 14:45:05;;;;;;;14.60;5.67;;;;;;;8.85;100.00;100256.03;6149600;28;20341;-68
2024/02/12 14:48:32;;;;;;;7.30;6.10;;;;;;;8.77;100.00;100277.41;6141367;28;20250;-69
2024/02/12 14:51:52;;;;;;;9.77;5.87;;;;;;;9.51;100.00;100281.19;6130206;28;20617;-69
2024/02/12 14:55:15;;;;;;;6.83;4.50;;;;;;;8.89;100.00;100291.56;6133155;28;20616;-68
2024/02/12 14:58:36;;;;;;;5.93;4.67;;;;;;;8.72;100.00;100290.41;6110882;28;20242;-68
2024/02/12 15:01:58;;;;;;;8.77;5.10;;;;;;;8.80;100.00;100297.78;6137185;28;20231;-67
2024/02/12 15:05:20;;;;;;;4.33;3.97;;;;;;;8.99;100.00;100296.94;6147978;28;20234;-67
2024/02/12 15:08:43;;;;;;;6.23;3.97;;;;;;;8.97;100.00;100297.06;6135933;28;20231;-67
2024/02/12 15:12:05;;;;;;;5.97;3.50;;;;;;;9.10;100.00;100305.72;6143707;28;20926;-68
2024/02/12 15:15:26;;;;;;;5.80;3.70;;;;;;;9.04;100.00;100300.06;6130257;28;20258;-68
2024/02/12 15:18:47;;;;;;;3.73;3.43;;;;;;;9.01;100.00;100305.72;6150017;28;20506;-67
2024/02/12 15:22:09;;;;;;;5.73;3.70;;;;;;;8.96;100.00;100311.50;6144654;28;20445;-68
2024/02/12 15:25:31;;;;;;;5.13;4.33;;;;;;;8.88;100.00;100318.56;6144336;28;20260;-67
2024/02/12 15:28:51;;;;;;;4.90;4.40;;;;;;;8.86;100.00;100326.78;6147689;28;20223;-66
2024/02/12 15:32:12;;;;;;;5.83;3.03;;;;;;;8.81;100.00;100332.56;6114584;28;20231;-67
2024/02/12 15:35:33;;;;;;;4.63;3.47;;;;;;;8.78;100.00;100326.63;6135853;28;20230;-67
2024/02/12 15:38:56;;;;;;;3.60;3.23;;;;;;;8.91;100.00;100327.19;6149420;28;20239;-67
2024/02/12 15:42:19;;;;;;;6.40;4.60;;;;;;;8.88;100.00;100332.88;6139592;28;20223;-67
2024/02/12 15:45:40;;;;;;;5.23;3.40;;;;;;;8.84;100.00;100348.41;6136173;28;20696;-67
2024/02/12 15:49:00;;;;;;;7.77;2.90;;;;;;;8.70;100.00;100347.94;6143749;28;20238;-67